Time;durP1;ratioP1;P1;durP2;ratioP2;P2;SDS_P1;SDS_P2;PMS_P1;PMS_P2;Temp;Humidity;BMP_temperature;BMP_pressure;BME280_temperature;BME280_humidity;BME280_pressure;Samples;Min_cycle;Max_cycle;Signal;HPM_P1;HPM_P2
2024/03/13 00:00:58;;;;;;;12.13;6.95;;;;;;;;;;4943126;28;20284;-90
2024/03/13 00:03:24;;;;;;;7.10;5.30;;;;;;;;;;4970838;28;20279;-90
2024/03/13 00:05:50;;;;;;;6.80;5.97;;;;;;;;;;4950260;28;20192;-90
2024/03/13 00:08:16;;;;;;;11.18;6.80;;;;;;;;;;4965198;28;20207;-89
2024/03/13 00:10:42;;;;;;;8.20;6.10;;;;;;;;;;4970531;28;20645;-89
2024/03/13 00:13:08;;;;;;;10.38;6.35;;;;;;;;;;4963193;28;20180;-92
2024/03/13 00:15:34;;;;;;;7.13;5.80;;;;;;;;;;4956978;28;20188;-92
2024/03/13 00:18:03;;;;;;;8.40;5.87;;;;;;;;;;4977295;28;20440;-93
2024/03/13 00:20:30;;;;;;;8.75;6.53;;;;;;;;;;4956061;28;20804;-92
2024/03/13 00:22:56;;;;;;;11.85;6.80;;;;;;;;;;4964999;28;20188;-93
2024/03/13 00:25:23;;;;;;;8.38;6.13;;;;;;;;;;4974188;28;20275;-92
2024/03/13 00:27:49;;;;;;;10.63;6.00;;;;;;;;;;4975318;28;20222;-92
2024/03/13 00:30:16;;;;;;;7.90;6.47;;;;;;;;;;4975750;28;20580;-93
2024/03/13 00:32:42;;;;;;;12.18;6.40;;;;;;;;;;4973769;28;20193;-93
2024/03/13 00:35:08;;;;;;;10.32;5.55;;;;;;;;;;4960220;28;20227;-93
2024/03/13 00:37:37;;;;;;;9.50;6.78;;;;;;;;;;4974816;28;20184;-92
2024/03/13 00:40:03;;;;;;;9.43;5.82;;;;;;;;;;4966261;28;20180;-92
2024/03/13 00:42:29;;;;;;;7.68;6.28;;;;;;;;;;4964654;28;20187;-93
2024/03/13 00:44:55;;;;;;;8.67;6.10;;;;;;;;;;4956771;28;20180;-92
2024/03/13 00:47:22;;;;;;;10.00;7.80;;;;;;;;;;4958303;28;20435;-91
2024/03/13 00:49:50;;;;;;;10.23;6.72;;;;;;;;;;4961419;28;20252;-92
2024/03/13 00:52:16;;;;;;;7.57;5.45;;;;;;;;;;4936501;28;20188;-91
2024/03/13 00:54:46;;;;;;;9.47;6.17;;;;;;;;;;4975811;28;20190;-92
2024/03/13 00:57:13;;;;;;;8.23;6.25;;;;;;;;;;4972561;28;20432;-91
2024/03/13 00:59:39;;;;;;;10.32;6.10;;;;;;;;;;4953872;28;20192;-91
2024/03/13 01:02:07;;;;;;;11.13;5.25;;;;;;;;;;4957635;28;20215;-91
2024/03/13 01:04:33;;;;;;;7.78;5.63;;;;;;;;;;4969410;28;20186;-91
2024/03/13 01:06:59;;;;;;;7.20;4.73;;;;;;;;;;4951404;28;20664;-91
2024/03/13 01:09:26;;;;;;;9.70;5.95;;;;;;;;;;4953461;28;20478;-90
2024/03/13 01:11:53;;;;;;;7.18;4.78;;;;;;;;;;4972579;28;20210;-91
2024/03/13 01:14:22;;;;;;;5.57;4.40;;;;;;;;;;4975924;28;20204;-91
2024/03/13 01:16:52;;;;;;;8.75;4.57;;;;;;;;;;4972126;28;20522;-92
2024/03/13 01:19:19;;;;;;;6.57;4.50;;;;;;;;;;4967329;28;20185;-92
2024/03/13 01:21:51;;;;;;;6.63;4.97;;;;;;;;;;4973822;28;20338;-92
2024/03/13 01:24:18;;;;;;;7.70;4.90;;;;;;;;;;4976456;28;20176;-92
2024/03/13 01:26:44;;;;;;;8.02;4.78;;;;;;;;;;4968724;28;20181;-91
2024/03/13 01:29:10;;;;;;;6.13;4.35;;;;;;;;;;4960698;28;20636;-92
2024/03/13 01:31:36;;;;;;;5.25;3.97;;;;;;;;;;4959007;28;20188;-91
2024/03/13 01:34:04;;;;;;;8.93;5.03;;;;;;;;;;4971684;28;20310;-91
2024/03/13 01:39:17;;;;;;;5.88;4.00;;;;;;;;;;4968644;28;20235;-90
2024/03/13 01:55:40;;;;;;;7.75;5.72;;;;;;;;;;4971261;28;20192;-91
2024/03/13 02:03:21;;;;;;;6.57;4.55;;;;;;;;;;4969669;28;20210;-90
2024/03/13 02:05:48;;;;;;;8.27;5.97;;;;;;;;;;4970051;28;20271;-89
2024/03/13 02:08:15;;;;;;;6.65;5.10;;;;;;;;;;4969688;28;20630;-89
2024/03/13 02:10:41;;;;;;;5.63;4.35;;;;;;;;;;4965206;28;20254;-90
2024/03/13 02:13:11;;;;;;;7.95;4.60;;;;;;;;;;4960532;28;20779;-89
2024/03/13 02:15:41;;;;;;;5.75;4.80;;;;;;;;;;4970770;28;20184;-90
2024/03/13 02:18:16;;;;;;;5.07;4.57;;;;;;;;;;4968530;28;20259;-89
2024/03/13 02:20:43;;;;;;;6.25;5.07;;;;;;;;;;4961497;28;20180;-89
2024/03/13 02:23:09;;;;;;;10.57;5.43;;;;;;;;;;4968891;28;20644;-90
2024/03/13 02:25:35;;;;;;;5.60;3.83;;;;;;;;;;4968733;28;20180;-90
2024/03/13 02:28:02;;;;;;;5.80;4.30;;;;;;;;;;4972758;28;20240;-87
2024/03/13 02:30:28;;;;;;;5.18;3.67;;;;;;;;;;4968679;28;20191;-88
2024/03/13 02:32:57;;;;;;;6.80;4.47;;;;;;;;;;4953271;28;20192;-90
2024/03/13 02:35:23;;;;;;;7.13;4.10;;;;;;;;;;4954329;28;20728;-93
2024/03/13 02:37:49;;;;;;;11.40;3.50;;;;;;;;;;4946954;28;20250;-93
2024/03/13 02:40:18;;;;;;;5.40;3.70;;;;;;;;;;4974509;28;20414;-91
2024/03/13 02:42:45;;;;;;;5.10;4.05;;;;;;;;;;4972466;28;20183;-92
2024/03/13 02:45:14;;;;;;;4.28;3.58;;;;;;;;;;4958529;28;20200;-92
2024/03/13 02:47:43;;;;;;;3.70;3.08;;;;;;;;;;4965047;28;20220;-92
2024/03/13 02:50:11;;;;;;;4.82;3.83;;;;;;;;;;4969126;28;21814;-91
2024/03/13 02:52:43;;;;;;;5.00;2.88;;;;;;;;;;4969143;28;20706;-90
2024/03/13 02:55:13;;;;;;;4.40;3.25;;;;;;;;;;4971447;28;20188;-88
2024/03/13 02:57:40;;;;;;;4.78;3.65;;;;;;;;;;4965589;28;20185;-89
2024/03/13 03:00:06;;;;;;;3.60;2.97;;;;;;;;;;4965796;28;20180;-90
2024/03/13 03:02:33;;;;;;;3.40;3.00;;;;;;;;;;4972762;28;20189;-91
2024/03/13 03:04:59;;;;;;;5.32;3.92;;;;;;;;;;4964342;28;20547;-91
2024/03/13 03:07:25;;;;;;;3.90;3.20;;;;;;;;;;4977172;28;20184;-91
2024/03/13 03:09:51;;;;;;;4.55;3.58;;;;;;;;;;4958558;28;20429;-90
2024/03/13 03:12:17;;;;;;;3.95;3.38;;;;;;;;;;4976734;28;20216;-91
2024/03/13 03:14:43;;;;;;;5.30;4.07;;;;;;;;;;4947967;28;20667;-91
2024/03/13 03:17:10;;;;;;;4.15;3.55;;;;;;;;;;4935106;28;20440;-90
2024/03/13 03:19:39;;;;;;;5.75;3.60;;;;;;;;;;4958603;28;20207;-91
2024/03/13 03:22:05;;;;;;;7.63;3.95;;;;;;;;;;4974561;28;20176;-90
2024/03/13 03:24:31;;;;;;;3.35;3.05;;;;;;;;;;4964814;28;20173;-91
2024/03/13 03:26:57;;;;;;;4.97;4.15;;;;;;;;;;4972389;28;20204;-92
2024/03/13 03:29:23;;;;;;;4.65;4.03;;;;;;;;;;4974865;28;20219;-90
2024/03/13 03:31:49;;;;;;;4.77;4.23;;;;;;;;;;4972850;28;20609;-89
2024/03/13 03:34:16;;;;;;;4.70;4.20;;;;;;;;;;4967587;28;20467;-88
2024/03/13 03:36:42;;;;;;;5.13;4.15;;;;;;;;;;4946545;28;20428;-88
2024/03/13 03:39:10;;;;;;;5.03;3.80;;;;;;;;;;4954529;28;20201;-89
2024/03/13 03:41:40;;;;;;;6.40;4.60;;;;;;;;;;4956450;28;20421;-89
2024/03/13 03:44:15;;;;;;;5.88;4.20;;;;;;;;;;4953507;28;20177;-90
2024/03/13 03:46:41;;;;;;;4.40;3.88;;;;;;;;;;4942300;29;20674;-91
2024/03/13 03:49:07;;;;;;;4.80;3.90;;;;;;;;;;4941306;28;20221;-89
2024/03/13 03:51:33;;;;;;;5.03;3.95;;;;;;;;;;4932810;29;20444;-90
2024/03/13 03:53:59;;;;;;;6.18;4.07;;;;;;;;;;4955386;28;20181;-92
2024/03/13 03:56:28;;;;;;;4.78;4.10;;;;;;;;;;4969662;28;20281;-91
2024/03/13 03:58:55;;;;;;;4.97;4.35;;;;;;;;;;4941383;29;20203;-91
2024/03/13 04:01:21;;;;;;;5.53;4.50;;;;;;;;;;4954280;28;20188;-91
2024/03/13 04:03:47;;;;;;;4.90;3.72;;;;;;;;;;4940134;28;20657;-91
2024/03/13 04:06:17;;;;;;;8.75;4.25;;;;;;;;;;4953392;28;20204;-90
2024/03/13 04:08:44;;;;;;;7.30;4.43;;;;;;;;;;4957789;28;20204;-91
2024/03/13 04:11:11;;;;;;;5.60;4.25;;;;;;;;;;4970651;28;20217;-92
2024/03/13 04:13:37;;;;;;;5.85;4.35;;;;;;;;;;4955430;28;20181;-91
2024/03/13 04:16:04;;;;;;;7.75;5.22;;;;;;;;;;4962427;28;20192;-90
2024/03/13 04:18:31;;;;;;;5.65;4.50;;;;;;;;;;4958415;28;20193;-90
2024/03/13 04:20:57;;;;;;;7.07;5.25;;;;;;;;;;4939767;28;20707;-90
2024/03/13 04:23:23;;;;;;;6.25;5.30;;;;;;;;;;4950846;28;20539;-89
2024/03/13 04:25:49;;;;;;;6.05;5.35;;;;;;;;;;4956748;28;20215;-90
2024/03/13 04:28:15;;;;;;;6.28;4.90;;;;;;;;;;4939181;29;20209;-90
2024/03/13 04:30:41;;;;;;;6.32;5.18;;;;;;;;;;4952752;28;20539;-90
2024/03/13 04:33:08;;;;;;;6.60;4.72;;;;;;;;;;4942078;28;20196;-90
2024/03/13 04:35:34;;;;;;;9.07;5.65;;;;;;;;;;4971831;28;20239;-90
2024/03/13 04:38:00;;;;;;;5.57;4.60;;;;;;;;;;4942844;28;20629;-89
2024/03/13 04:40:26;;;;;;;7.43;5.65;;;;;;;;;;4972177;28;20184;-90
2024/03/13 04:42:53;;;;;;;7.18;5.35;;;;;;;;;;4972263;28;20184;-90
2024/03/13 04:45:19;;;;;;;8.45;5.28;;;;;;;;;;4952390;28;20202;-89
2024/03/13 04:47:45;;;;;;;13.00;5.95;;;;;;;;;;4950860;28;20224;-90
2024/03/13 04:50:11;;;;;;;9.20;5.32;;;;;;;;;;4971667;28;20586;-90
2024/03/13 04:52:38;;;;;;;9.00;5.90;;;;;;;;;;4973752;28;20176;-90
2024/03/13 04:55:05;;;;;;;5.93;4.65;;;;;;;;;;4969654;28;20207;-89
2024/03/13 04:57:32;;;;;;;8.75;6.72;;;;;;;;;;4972246;28;20180;-89
2024/03/13 04:59:58;;;;;;;10.88;7.80;;;;;;;;;;4970314;28;20195;-89
2024/03/13 05:02:26;;;;;;;10.00;6.80;;;;;;;;;;4972893;28;20575;-89
2024/03/13 05:04:53;;;;;;;10.55;6.60;;;;;;;;;;4974001;28;20251;-90
2024/03/13 05:07:18;;;;;;;9.10;7.00;;;;;;;;;;4968354;28;20224;-91
2024/03/13 05:09:45;;;;;;;8.85;5.90;;;;;;;;;;4950977;28;20649;-90
2024/03/13 05:12:12;;;;;;;6.20;5.25;;;;;;;;;;4973641;28;20239;-90
2024/03/13 05:14:38;;;;;;;8.35;6.43;;;;;;;;;;4973327;28;20199;-91
2024/03/13 05:17:04;;;;;;;9.02;5.85;;;;;;;;;;4954910;28;20231;-90
2024/03/13 05:19:30;;;;;;;6.68;5.18;;;;;;;;;;4969762;28;20278;-90
2024/03/13 05:21:57;;;;;;;7.95;5.25;;;;;;;;;;4965208;28;20227;-90
2024/03/13 05:24:24;;;;;;;7.55;5.80;;;;;;;;;;4978386;28;20187;-91
2024/03/13 05:26:51;;;;;;;5.78;4.90;;;;;;;;;;4955512;28;20183;-91
2024/03/13 05:29:18;;;;;;;7.03;5.45;;;;;;;;;;4933854;28;20249;-90
2024/03/13 05:31:44;;;;;;;7.90;5.13;;;;;;;;;;4972552;28;20584;-90
2024/03/13 05:34:10;;;;;;;6.80;5.00;;;;;;;;;;4951219;28;20307;-90
2024/03/13 05:36:36;;;;;;;7.63;5.70;;;;;;;;;;4933151;28;20300;-88
2024/03/13 05:39:04;;;;;;;10.02;6.40;;;;;;;;;;4940482;28;20451;-90
2024/03/13 05:41:31;;;;;;;11.05;7.55;;;;;;;;;;4972711;28;20180;-89
2024/03/13 05:43:57;;;;;;;9.40;7.00;;;;;;;;;;4947458;28;20558;-90
2024/03/13 05:46:23;;;;;;;9.18;6.45;;;;;;;;;;4971311;28;20188;-90
2024/03/13 05:48:49;;;;;;;9.90;7.30;;;;;;;;;;4970384;28;20228;-90
2024/03/13 05:51:15;;;;;;;11.35;6.60;;;;;;;;;;4970420;28;20460;-90
2024/03/13 05:53:41;;;;;;;11.98;7.28;;;;;;;;;;4962338;28;20216;-91
2024/03/13 05:56:07;;;;;;;10.93;6.60;;;;;;;;;;4941325;28;20682;-91
2024/03/13 05:58:33;;;;;;;9.05;6.70;;;;;;;;;;4955495;28;20420;-91
2024/03/13 06:01:01;;;;;;;10.65;6.88;;;;;;;;;;4969618;28;20189;-91
2024/03/13 06:03:29;;;;;;;9.60;7.20;;;;;;;;;;4966669;28;20195;-91
2024/03/13 06:05:55;;;;;;;9.75;7.13;;;;;;;;;;4972769;28;20195;-90
2024/03/13 06:08:21;;;;;;;12.80;7.47;;;;;;;;;;4971665;28;20298;-90
2024/03/13 06:10:48;;;;;;;10.48;6.53;;;;;;;;;;4967668;28;20180;-90
2024/03/13 06:13:15;;;;;;;7.68;6.57;;;;;;;;;;4952883;28;20181;-90
2024/03/13 06:15:41;;;;;;;9.25;7.53;;;;;;;;;;4973970;28;20291;-90
2024/03/13 06:18:08;;;;;;;11.45;8.00;;;;;;;;;;4954745;28;20599;-90
2024/03/13 06:20:34;;;;;;;12.30;9.05;;;;;;;;;;4960056;28;20557;-90
2024/03/13 06:23:00;;;;;;;14.45;8.40;;;;;;;;;;4975148;28;20267;-90
2024/03/13 06:25:28;;;;;;;12.20;8.20;;;;;;;;;;4976367;28;20270;-89
2024/03/13 06:28:01;;;;;;;13.57;8.50;;;;;;;;;;4974806;28;20463;-90
2024/03/13 06:30:27;;;;;;;12.05;8.00;;;;;;;;;;4972936;28;20535;-89
2024/03/13 06:32:53;;;;;;;13.25;8.43;;;;;;;;;;4941347;28;20540;-89
2024/03/13 06:35:19;;;;;;;11.45;7.30;;;;;;;;;;4977334;28;20191;-88
2024/03/13 06:37:46;;;;;;;15.10;9.10;;;;;;;;;;4954234;28;20188;-89
2024/03/13 06:40:13;;;;;;;12.65;7.90;;;;;;;;;;4945262;28;20473;-90
2024/03/13 06:42:39;;;;;;;13.73;8.15;;;;;;;;;;4941928;28;20259;-89
2024/03/13 06:45:05;;;;;;;12.95;8.13;;;;;;;;;;4961978;28;20192;-90
2024/03/13 06:47:31;;;;;;;15.00;8.15;;;;;;;;;;4943120;28;20263;-90
2024/03/13 06:49:58;;;;;;;10.73;7.95;;;;;;;;;;4955877;28;20184;-90
2024/03/13 06:52:24;;;;;;;12.27;7.32;;;;;;;;;;4936777;28;20609;-91
2024/03/13 06:54:50;;;;;;;11.65;6.72;;;;;;;;;;4959102;28;20591;-90
2024/03/13 06:57:16;;;;;;;11.93;7.73;;;;;;;;;;4940292;28;20230;-90
2024/03/13 06:59:44;;;;;;;12.67;7.00;;;;;;;;;;4950792;28;20552;-90
2024/03/13 07:02:14;;;;;;;18.05;8.20;;;;;;;;;;4942942;28;20559;-91
2024/03/13 07:04:40;;;;;;;12.45;8.35;;;;;;;;;;4974855;28;20253;-92
2024/03/13 07:07:06;;;;;;;15.43;7.63;;;;;;;;;;4971551;28;20211;-92
2024/03/13 07:09:32;;;;;;;15.18;8.02;;;;;;;;;;4970237;28;20582;-92
2024/03/13 07:11:58;;;;;;;13.57;7.80;;;;;;;;;;4946666;28;20196;-89
2024/03/13 07:14:24;;;;;;;12.98;7.10;;;;;;;;;;4971923;28;20597;-91
2024/03/13 07:16:51;;;;;;;14.45;7.38;;;;;;;;;;4970518;28;20187;-90
2024/03/13 07:19:19;;;;;;;15.07;7.65;;;;;;;;;;4976841;28;20188;-92
2024/03/13 07:21:45;;;;;;;11.85;7.15;;;;;;;;;;4963275;28;20191;-91
2024/03/13 07:24:13;;;;;;;10.55;6.18;;;;;;;;;;4976704;28;20271;-91
2024/03/13 07:26:41;;;;;;;16.27;8.13;;;;;;;;;;4974129;28;20180;-89
2024/03/13 07:29:07;;;;;;;15.90;7.57;;;;;;;;;;4975925;28;20231;-90
2024/03/13 07:31:34;;;;;;;11.55;6.30;;;;;;;;;;4973916;28;20591;-89
2024/03/13 07:34:00;;;;;;;13.57;6.88;;;;;;;;;;4970990;28;20311;-89
2024/03/13 07:36:26;;;;;;;13.73;6.43;;;;;;;;;;4963711;28;20185;-91
2024/03/13 07:38:53;;;;;;;16.42;7.13;;;;;;;;;;4981551;28;20651;-90
2024/03/13 07:41:19;;;;;;;13.15;6.55;;;;;;;;;;4976405;28;20188;-90
2024/03/13 07:43:46;;;;;;;9.43;6.50;;;;;;;;;;4980620;28;20714;-91
2024/03/13 07:46:12;;;;;;;8.80;6.32;;;;;;;;;;4966760;28;20789;-90
2024/03/13 07:48:38;;;;;;;15.65;8.38;;;;;;;;;;4967538;28;20295;-91
2024/03/13 07:51:06;;;;;;;16.77;6.43;;;;;;;;;;4974447;28;20180;-91
2024/03/13 07:53:33;;;;;;;13.85;7.43;;;;;;;;;;4975917;28;20263;-92
2024/03/13 07:55:59;;;;;;;12.38;6.13;;;;;;;;;;4969374;28;20304;-91
2024/03/13 07:58:25;;;;;;;17.33;7.13;;;;;;;;;;4970746;28;20244;-91
2024/03/13 08:00:51;;;;;;;10.95;6.40;;;;;;;;;;4974619;28;20215;-91
2024/03/13 08:03:17;;;;;;;12.57;7.28;;;;;;;;;;4975492;28;20192;-90
2024/03/13 08:05:44;;;;;;;16.97;7.93;;;;;;;;;;4965881;28;20207;-90
2024/03/13 08:08:10;;;;;;;20.17;8.55;;;;;;;;;;4971733;28;20480;-89
2024/03/13 08:10:37;;;;;;;18.75;8.10;;;;;;;;;;4970334;28;20184;-91
2024/03/13 08:13:04;;;;;;;18.80;8.82;;;;;;;;;;4974655;28;20770;-89
2024/03/13 08:15:30;;;;;;;16.20;8.20;;;;;;;;;;4975858;28;20279;-88
2024/03/13 08:17:56;;;;;;;18.63;9.63;;;;;;;;;;4972088;28;20184;-89
2024/03/13 08:20:22;;;;;;;17.92;8.63;;;;;;;;;;4967108;28;20184;-90
2024/03/13 08:22:48;;;;;;;15.63;8.75;;;;;;;;;;4973622;28;20271;-90
2024/03/13 08:25:19;;;;;;;15.60;7.68;;;;;;;;;;4966999;28;20180;-92
2024/03/13 08:27:45;;;;;;;16.98;8.02;;;;;;;;;;4973296;28;20295;-91
2024/03/13 08:30:17;;;;;;;19.67;10.07;;;;;;;;;;4975323;28;20180;-91
2024/03/13 08:32:43;;;;;;;14.35;8.45;;;;;;;;;;4978303;28;20206;-90
2024/03/13 08:35:09;;;;;;;21.00;8.88;;;;;;;;;;4954471;28;20235;-91
2024/03/13 08:37:35;;;;;;;16.80;8.45;;;;;;;;;;4946146;28;20183;-91
2024/03/13 08:40:02;;;;;;;15.80;8.65;;;;;;;;;;4971311;28;20704;-90
2024/03/13 08:42:28;;;;;;;19.25;8.13;;;;;;;;;;4977155;28;20603;-89
2024/03/13 08:44:54;;;;;;;14.70;7.73;;;;;;;;;;4974949;28;20180;-89
2024/03/13 08:47:20;;;;;;;13.40;6.07;;;;;;;;;;4963580;28;20522;-87
2024/03/13 08:49:46;;;;;;;14.63;7.00;;;;;;;;;;4969696;28;20762;-90
2024/03/13 08:52:12;;;;;;;20.30;8.80;;;;;;;;;;4963764;28;20188;-89
2024/03/13 08:54:41;;;;;;;18.95;8.38;;;;;;;;;;4972104;28;20189;-89
2024/03/13 08:57:08;;;;;;;16.30;6.70;;;;;;;;;;4969680;28;20191;-90
2024/03/13 08:59:34;;;;;;;14.02;7.80;;;;;;;;;;4970965;28;20645;-90
2024/03/13 09:02:00;;;;;;;22.20;7.95;;;;;;;;;;4975106;28;20255;-90
2024/03/13 09:04:26;;;;;;;11.75;7.43;;;;;;;;;;4973330;28;20180;-91
2024/03/13 09:06:52;;;;;;;14.53;7.23;;;;;;;;;;4971211;28;20212;-92
2024/03/13 09:09:23;;;;;;;14.13;7.90;;;;;;;;;;4966790;28;20543;-91
2024/03/13 09:11:50;;;;;;;13.85;7.00;;;;;;;;;;4958957;28;20424;-91
2024/03/13 09:14:17;;;;;;;13.90;5.90;;;;;;;;;;4969601;28;20184;-91
2024/03/13 09:16:43;;;;;;;12.02;6.80;;;;;;;;;;4972461;28;20208;-93
2024/03/13 09:19:10;;;;;;;11.65;5.40;;;;;;;;;;4960265;28;20199;-92
2024/03/13 09:21:36;;;;;;;9.40;5.03;;;;;;;;;;4977846;28;20214;-90
2024/03/13 09:24:02;;;;;;;10.97;6.27;;;;;;;;;;4978551;28;20241;-91
2024/03/13 09:26:34;;;;;;;10.27;5.20;;;;;;;;;;4969484;28;20436;-91
2024/03/13 09:29:01;;;;;;;9.90;5.25;;;;;;;;;;4973987;28;20700;-94
2024/03/13 09:31:27;;;;;;;8.45;5.38;;;;;;;;;;4972570;28;20176;-92
2024/03/13 09:33:53;;;;;;;9.70;5.47;;;;;;;;;;4972934;28;20232;-90
2024/03/13 09:36:19;;;;;;;9.95;5.55;;;;;;;;;;4966687;28;20210;-94
2024/03/13 09:38:45;;;;;;;6.10;4.10;;;;;;;;;;4970316;28;20184;-90
2024/03/13 09:41:15;;;;;;;6.00;4.80;;;;;;;;;;4970791;28;20439;-93
2024/03/13 09:43:41;;;;;;;7.80;4.40;;;;;;;;;;4972400;28;20415;-85
2024/03/13 09:46:07;;;;;;;8.10;4.25;;;;;;;;;;4957626;28;20546;-88
2024/03/13 09:48:37;;;;;;;7.03;3.90;;;;;;;;;;4965627;28;20224;-89
2024/03/13 09:51:04;;;;;;;5.07;3.10;;;;;;;;;;4969335;28;20187;-88
2024/03/13 09:53:31;;;;;;;8.45;3.00;;;;;;;;;;4966829;28;20196;-86
2024/03/13 09:55:57;;;;;;;4.65;3.60;;;;;;;;;;4965793;28;20581;-85
2024/03/13 09:58:23;;;;;;;7.00;3.38;;;;;;;;;;4967212;28;20202;-87
2024/03/13 10:00:52;;;;;;;3.63;2.65;;;;;;;;;;4940578;28;20180;-87
2024/03/13 10:03:27;;;;;;;4.18;3.08;;;;;;;;;;4966033;28;20219;-87
2024/03/13 10:06:00;;;;;;;4.40;2.80;;;;;;;;;;4973326;28;20558;-87
2024/03/13 10:08:27;;;;;;;6.03;3.03;;;;;;;;;;4968214;28;20201;-87
2024/03/13 10:10:53;;;;;;;3.42;2.28;;;;;;;;;;4973216;28;20206;-87
2024/03/13 10:13:20;;;;;;;3.40;2.57;;;;;;;;;;4976568;28;20652;-86
2024/03/13 10:15:47;;;;;;;3.20;2.08;;;;;;;;;;4974240;28;20411;-86
2024/03/13 10:18:18;;;;;;;3.78;2.15;;;;;;;;;;4949373;28;20188;-87
2024/03/13 10:20:54;;;;;;;3.90;2.60;;;;;;;;;;4962398;28;20185;-87
2024/03/13 10:23:21;;;;;;;5.90;2.40;;;;;;;;;;4958801;28;20191;-86
2024/03/13 10:25:50;;;;;;;4.35;2.00;;;;;;;;;;4966924;28;20189;-85
2024/03/13 10:28:18;;;;;;;4.00;1.63;;;;;;;;;;4970284;28;20212;-87
2024/03/13 10:30:47;;;;;;;3.85;2.20;;;;;;;;;;4951031;28;20196;-87
2024/03/13 10:33:13;;;;;;;2.88;2.20;;;;;;;;;;4942855;28;20231;-87
2024/03/13 10:35:41;;;;;;;4.50;1.75;;;;;;;;;;4966227;28;20188;-85
2024/03/13 10:38:12;;;;;;;4.97;2.40;;;;;;;;;;4969121;28;20590;-87
2024/03/13 10:40:39;;;;;;;4.70;1.88;;;;;;;;;;4964799;28;20180;-85
2024/03/13 10:43:08;;;;;;;2.83;1.60;;;;;;;;;;4970316;28;20376;-86
2024/03/13 10:45:35;;;;;;;3.17;1.98;;;;;;;;;;4967603;28;20207;-85
2024/03/13 10:48:01;;;;;;;4.30;2.47;;;;;;;;;;4968987;28;20227;-85
2024/03/13 10:50:30;;;;;;;4.33;2.33;;;;;;;;;;4966373;28;20191;-84
2024/03/13 10:52:57;;;;;;;6.82;2.75;;;;;;;;;;4973832;28;20986;-85
2024/03/13 10:55:26;;;;;;;2.75;2.22;;;;;;;;;;4954717;28;20191;-84
2024/03/13 10:57:53;;;;;;;3.28;2.10;;;;;;;;;;4970373;28;20679;-85
2024/03/13 11:00:21;;;;;;;5.18;2.15;;;;;;;;;;4962785;28;20184;-82
2024/03/13 11:02:49;;;;;;;4.45;2.40;;;;;;;;;;4942084;28;20194;-84
2024/03/13 11:05:16;;;;;;;3.13;2.00;;;;;;;;;;4951666;28;20275;-84
2024/03/13 11:07:42;;;;;;;4.70;2.63;;;;;;;;;;4949895;28;20182;-84
2024/03/13 11:10:21;;;;;;;10.17;3.67;;;;;;;;;;4973967;28;20415;-85
2024/03/13 11:12:49;;;;;;;4.10;2.60;;;;;;;;;;4968937;28;20415;-84
2024/03/13 11:15:21;;;;;;;3.47;2.40;;;;;;;;;;4977749;28;20435;-85
2024/03/13 11:17:51;;;;;;;3.30;1.90;;;;;;;;;;4974384;28;20428;-84
2024/03/13 11:20:21;;;;;;;4.47;2.40;;;;;;;;;;4972561;28;20423;-84
2024/03/13 11:22:52;;;;;;;6.88;2.97;;;;;;;;;;4968651;28;20432;-83
2024/03/13 11:25:18;;;;;;;5.50;2.38;;;;;;;;;;4971602;28;20184;-84
2024/03/13 11:27:52;;;;;;;5.05;2.60;;;;;;;;;;4967396;28;20193;-83
2024/03/13 11:30:20;;;;;;;3.75;2.20;;;;;;;;;;4974018;28;20266;-84
2024/03/13 11:32:48;;;;;;;4.15;2.35;;;;;;;;;;4967157;28;20201;-83
2024/03/13 11:35:14;;;;;;;7.20;3.17;;;;;;;;;;4967279;28;20238;-84
2024/03/13 11:37:40;;;;;;;9.17;2.50;;;;;;;;;;4971314;28;20188;-83
2024/03/13 11:40:07;;;;;;;3.67;2.90;;;;;;;;;;4976787;28;20408;-84
2024/03/13 11:42:33;;;;;;;3.30;2.70;;;;;;;;;;4973235;28;20429;-83
2024/03/13 11:45:15;;;;;;;3.63;2.57;;;;;;;;;;4967921;28;20830;-83
2024/03/13 11:47:41;;;;;;;6.07;2.58;;;;;;;;;;4975856;28;20432;-84
2024/03/13 11:50:11;;;;;;;4.43;2.43;;;;;;;;;;4971509;28;20203;-83
2024/03/13 11:52:40;;;;;;;4.90;2.50;;;;;;;;;;4957322;28;20774;-83
2024/03/13 11:55:27;;;;;;;6.00;2.83;;;;;;;;;;4974345;28;20437;-84
2024/03/13 11:58:03;;;;;;;2.38;1.95;;;;;;;;;;4970428;28;20451;-84
2024/03/13 12:00:29;;;;;;;7.70;3.33;;;;;;;;;;4968273;28;20190;-84
2024/03/13 12:02:57;;;;;;;4.13;2.30;;;;;;;;;;4968288;28;20624;-84
2024/03/13 12:05:33;;;;;;;4.57;2.78;;;;;;;;;;4970550;28;20782;-84
2024/03/13 12:08:00;;;;;;;4.05;2.72;;;;;;;;;;4968981;28;20207;-83
2024/03/13 12:10:27;;;;;;;5.37;2.40;;;;;;;;;;4966825;28;20697;-84
2024/03/13 12:12:53;;;;;;;3.90;2.13;;;;;;;;;;4967952;28;20424;-83
2024/03/13 12:15:21;;;;;;;5.00;2.27;;;;;;;;;;4970513;28;20431;-84
2024/03/13 12:17:50;;;;;;;2.40;2.00;;;;;;;;;;4973494;28;20440;-83
2024/03/13 12:20:22;;;;;;;3.88;2.97;;;;;;;;;;4973669;28;20431;-84
2024/03/13 12:22:49;;;;;;;4.10;2.60;;;;;;;;;;4975428;28;20188;-84
2024/03/13 12:25:15;;;;;;;3.03;2.73;;;;;;;;;;4974951;28;20184;-83
2024/03/13 12:27:49;;;;;;;13.77;3.20;;;;;;;;;;4964795;28;20962;-84
2024/03/13 12:30:18;;;;;;;3.77;2.97;;;;;;;;;;4966698;28;20816;-84
2024/03/13 12:32:45;;;;;;;4.30;3.10;;;;;;;;;;4966985;28;20463;-83
2024/03/13 12:35:12;;;;;;;4.70;3.60;;;;;;;;;;4958501;28;20242;-84
2024/03/13 12:37:41;;;;;;;6.77;3.20;;;;;;;;;;4968483;28;20436;-83
2024/03/13 12:40:12;;;;;;;4.22;3.35;;;;;;;;;;4970281;28;20789;-84
2024/03/13 12:42:41;;;;;;;5.07;3.80;;;;;;;;;;4967816;28;20605;-84
2024/03/13 12:45:07;;;;;;;5.57;4.00;;;;;;;;;;4967097;28;20943;-83
2024/03/13 12:47:38;;;;;;;5.50;3.70;;;;;;;;;;4966198;28;20430;-83
2024/03/13 12:50:09;;;;;;;6.07;3.13;;;;;;;;;;4964301;28;20432;-83
2024/03/13 12:52:37;;;;;;;4.77;3.23;;;;;;;;;;4973871;28;20408;-83
2024/03/13 12:55:05;;;;;;;3.97;3.30;;;;;;;;;;4974409;28;20755;-83
2024/03/13 12:57:37;;;;;;;6.00;3.50;;;;;;;;;;4968039;28;20179;-83
2024/03/13 13:00:13;;;;;;;5.80;3.13;;;;;;;;;;4970635;28;20428;-83
2024/03/13 13:02:42;;;;;;;5.85;3.55;;;;;;;;;;4973299;28;20454;-83
2024/03/13 13:05:09;;;;;;;4.60;3.40;;;;;;;;;;4975023;28;20176;-80
2024/03/13 13:07:35;;;;;;;7.00;2.80;;;;;;;;;;4966510;28;20431;-83
2024/03/13 13:10:06;;;;;;;4.90;3.30;;;;;;;;;;4949615;28;21020;-82
2024/03/13 13:12:32;;;;;;;6.90;3.20;;;;;;;;;;4965767;28;20408;-83
2024/03/13 13:14:58;;;;;;;3.67;3.00;;;;;;;;;;4972294;28;20444;-83
2024/03/13 13:17:25;;;;;;;3.83;3.43;;;;;;;;;;4975350;28;20431;-83
2024/03/13 13:19:51;;;;;;;3.90;2.90;;;;;;;;;;4967979;28;20416;-83
2024/03/13 13:22:17;;;;;;;4.10;3.70;;;;;;;;;;4965883;28;20433;-83
2024/03/13 13:24:43;;;;;;;4.40;4.00;;;;;;;;;;4974467;28;20411;-83
2024/03/13 13:27:10;;;;;;;5.40;4.37;;;;;;;;;;4971845;28;20447;-83
2024/03/13 13:29:37;;;;;;;5.43;4.80;;;;;;;;;;4946447;28;20471;-83
2024/03/13 13:32:03;;;;;;;6.40;4.57;;;;;;;;;;4963580;28;20435;-83
2024/03/13 13:34:29;;;;;;;10.00;5.23;;;;;;;;;;4976662;28;20552;-83
2024/03/13 13:36:56;;;;;;;5.97;4.10;;;;;;;;;;4953172;28;20861;-83
2024/03/13 13:39:22;;;;;;;6.83;5.00;;;;;;;;;;4972512;28;20454;-83
2024/03/13 13:41:49;;;;;;;5.83;4.60;;;;;;;;;;4951688;28;20439;-83
2024/03/13 13:44:15;;;;;;;4.93;4.27;;;;;;;;;;4972595;28;20439;-83
2024/03/13 13:46:41;;;;;;;4.27;3.60;;;;;;;;;;4968619;28;20781;-83
2024/03/13 13:49:08;;;;;;;5.30;4.80;;;;;;;;;;4971782;28;20559;-83
2024/03/13 13:51:34;;;;;;;5.10;4.43;;;;;;;;;;4967027;28;20442;-83
2024/03/13 13:54:00;;;;;;;6.53;5.03;;;;;;;;;;4972211;28;20745;-82
2024/03/13 13:56:26;;;;;;;5.40;4.60;;;;;;;;;;4967775;28;20491;-83
2024/03/13 13:58:52;;;;;;;6.73;4.47;;;;;;;;;;4966546;28;20432;-83
2024/03/13 14:01:22;;;;;;;6.97;4.30;;;;;;;;;;4970646;28;20423;-83
2024/03/13 14:03:48;;;;;;;4.87;4.00;;;;;;;;;;4969148;28;20454;-82
2024/03/13 14:06:14;;;;;;;4.87;3.70;;;;;;;;;;4971014;28;20439;-83
2024/03/13 14:08:40;;;;;;;8.87;3.77;;;;;;;;;;4966246;28;20479;-83
2024/03/13 14:11:06;;;;;;;4.00;3.57;;;;;;;;;;4962823;28;20429;-83
2024/03/13 14:13:41;;;;;;;4.17;3.40;;;;;;;;;;4971206;28;20425;-83
2024/03/13 14:16:08;;;;;;;12.73;6.17;;;;;;;;;;4968211;28;20791;-83
2024/03/13 14:18:34;;;;;;;4.95;3.38;;;;;;;;;;4968552;28;20455;-83
2024/03/13 14:21:01;;;;;;;5.97;3.13;;;;;;;;;;4970755;28;20195;-83
2024/03/13 14:23:27;;;;;;;4.50;3.63;;;;;;;;;;4949082;28;20499;-84
2024/03/13 14:25:52;;;;;;;4.57;3.00;;;;;;;;;;4970725;28;20470;-83
2024/03/13 14:28:18;;;;;;;12.53;3.70;;;;;;;;;;4968254;28;20844;-83
2024/03/13 14:30:45;;;;;;;5.20;3.23;;;;;;;;;;4949835;28;20440;-82
2024/03/13 14:33:11;;;;;;;6.03;3.00;;;;;;;;;;4968963;28;20436;-83
2024/03/13 14:35:37;;;;;;;4.43;3.00;;;;;;;;;;4974719;28;20495;-83
2024/03/13 14:38:03;;;;;;;3.80;2.73;;;;;;;;;;4971370;28;20466;-83
2024/03/13 14:40:29;;;;;;;4.43;2.30;;;;;;;;;;4972027;28;21013;-83
2024/03/13 14:42:55;;;;;;;3.43;2.63;;;;;;;;;;4969949;28;20438;-82
2024/03/13 14:45:22;;;;;;;5.47;2.47;;;;;;;;;;4971918;28;20447;-82
2024/03/13 14:47:48;;;;;;;3.27;2.27;;;;;;;;;;4969941;28;20434;-82
2024/03/13 14:50:17;;;;;;;4.47;2.77;;;;;;;;;;4975004;28;20444;-82
2024/03/13 14:52:43;;;;;;;5.47;2.23;;;;;;;;;;4976558;28;20424;-82
2024/03/13 14:55:09;;;;;;;4.13;2.47;;;;;;;;;;4963531;28;20437;-82
2024/03/13 14:57:36;;;;;;;4.77;1.90;;;;;;;;;;4971192;28;20427;-83
2024/03/13 15:00:02;;;;;;;8.53;2.43;;;;;;;;;;4968874;28;20430;-82